createdAt,value
2018-06-17T00:02:13.562Z,98478.00
2018-06-17T00:04:45.091Z,98485.00
2018-06-17T00:07:15.251Z,98486.00
2018-06-17T00:09:45.130Z,98490.00
2018-06-17T00:12:15.361Z,98487.00
2018-06-17T00:14:45.590Z,98490.00
2018-06-17T00:17:15.750Z,98493.00
2018-06-17T00:19:46.009Z,98492.00
2018-06-17T00:22:16.321Z,98491.00
2018-06-17T00:24:46.580Z,98487.00
2018-06-17T00:27:16.829Z,98488.00
2018-06-17T00:29:47.840Z,98487.00
2018-06-17T00:32:17.599Z,98487.00
2018-06-17T00:34:49.022Z,98497.00
2018-06-17T00:37:19.780Z,98488.00
2018-06-17T00:39:49.969Z,98486.00
2018-06-17T00:42:20.930Z,98489.00
2018-06-17T00:44:51.410Z,98497.00
2018-06-17T00:47:21.850Z,98487.00
2018-06-17T00:49:51.961Z,98478.00
2018-06-17T00:52:22.572Z,98490.00
2018-06-17T00:54:52.630Z,98482.00
2018-06-17T00:57:38.710Z,98488.00
2018-06-17T01:00:09.491Z,98484.00
2018-06-17T01:02:39.800Z,98485.00
2018-06-17T01:05:10.101Z,98490.00
2018-06-17T01:07:39.939Z,98492.00
2018-06-17T01:10:10.364Z,98488.00
2018-06-17T01:12:40.682Z,98481.00
2018-06-17T01:15:11.029Z,98487.00
2018-06-17T01:17:40.890Z,98487.00
2018-06-17T01:20:10.761Z,98489.00
2018-06-17T01:22:41.164Z,98479.00
2018-06-17T01:25:11.009Z,98479.00
2018-06-17T01:27:41.224Z,98477.00
2018-06-17T01:30:11.701Z,98484.00
2018-06-17T01:32:42.080Z,98476.00
2018-06-17T01:35:12.531Z,98477.00
2018-06-17T01:37:43.320Z,98476.00
2018-06-17T01:40:13.439Z,98472.00
2018-06-17T01:42:43.630Z,98472.00
2018-06-17T01:45:13.720Z,98474.00
2018-06-17T01:47:44.051Z,98470.00
2018-06-17T01:50:14.320Z,98477.00
2018-06-17T01:52:44.773Z,98468.00
2018-06-17T01:55:14.853Z,98474.00
2018-06-17T01:57:45.161Z,98469.00
2018-06-17T02:00:15.470Z,98474.00
2018-06-17T02:02:45.269Z,98474.00
2018-06-17T02:05:20.960Z,98471.00
2018-06-17T02:07:56.335Z,98466.00
2018-06-17T02:10:32.969Z,98467.00
2018-06-17T02:13:03.405Z,98472.00
2018-06-17T02:15:33.520Z,98467.00
2018-06-17T02:18:03.740Z,98473.00
2018-06-17T02:20:34.000Z,98464.00
2018-06-17T02:23:03.849Z,98473.00
2018-06-17T02:25:34.430Z,98473.00
2018-06-17T02:28:05.300Z,98468.00
2018-06-17T02:30:36.170Z,98471.00
2018-06-17T02:33:07.381Z,98475.00
2018-06-17T02:35:37.811Z,98470.00
2018-06-17T02:38:07.741Z,98466.00
2018-06-17T02:40:38.094Z,98463.00
2018-06-17T02:43:08.291Z,98462.00
2018-06-17T02:47:44.741Z,98460.00
2018-06-17T02:59:17.791Z,98463.00
2018-06-17T03:01:48.191Z,98468.00
2018-06-17T03:04:18.430Z,98463.00
2018-06-17T03:06:48.731Z,98460.00
2018-06-17T03:09:18.430Z,98465.00
2018-06-17T03:11:48.301Z,98466.00
2018-06-17T03:14:18.741Z,98471.00
2018-06-17T03:16:49.010Z,98474.00
2018-06-17T03:19:18.683Z,98465.00
2018-06-17T03:21:49.270Z,98477.00
2018-06-17T03:24:24.700Z,98474.00
2018-06-17T03:27:00.650Z,98479.00
2018-06-17T03:29:37.400Z,98485.00
2018-06-17T03:32:12.769Z,98493.00
2018-06-17T03:34:43.600Z,98490.00
2018-06-17T03:37:13.951Z,98485.00
2018-06-17T03:39:43.773Z,98485.00
2018-06-17T03:42:14.720Z,98486.00
2018-06-17T03:44:45.111Z,98490.00
2018-06-17T03:47:15.261Z,98491.00
2018-06-17T03:49:45.541Z,98501.00
2018-06-17T03:52:16.461Z,98505.00
2018-06-17T03:54:46.361Z,98510.00
2018-06-17T03:57:16.451Z,98508.00
2018-06-17T03:59:46.491Z,98508.00
2018-06-17T04:02:17.101Z,98503.00
2018-06-17T04:04:53.270Z,98506.00
2018-06-17T04:07:23.703Z,98509.00
2018-06-17T04:09:53.811Z,98506.00
2018-06-17T04:12:24.172Z,98507.00
2018-06-17T04:14:55.147Z,98506.00
2018-06-17T04:17:25.329Z,98505.00
2018-06-17T04:19:55.451Z,98503.00
2018-06-17T04:22:26.570Z,98502.00
2018-06-17T04:24:56.910Z,98500.00
2018-06-17T04:27:27.361Z,98504.00
2018-06-17T04:29:57.691Z,98505.00
2018-06-17T04:32:28.021Z,98495.00
2018-06-17T04:34:58.155Z,98506.00
2018-06-17T04:37:28.051Z,98501.00
2018-06-17T04:39:59.021Z,98496.00
2018-06-17T04:42:28.950Z,98502.00
2018-06-17T04:44:59.570Z,98494.00
2018-06-17T04:47:30.032Z,98496.00
2018-06-17T04:50:00.630Z,98506.00
2018-06-17T04:52:31.021Z,98510.00
2018-06-17T04:55:01.690Z,98509.00
2018-06-17T04:57:31.842Z,98509.00
2018-06-17T05:00:02.308Z,98514.00
2018-06-17T05:02:32.691Z,98510.00
2018-06-17T05:05:03.341Z,98507.00
2018-06-17T05:07:33.336Z,98518.00
2018-06-17T05:10:03.771Z,98517.00
2018-06-17T05:12:34.100Z,98525.00
2018-06-17T05:15:05.831Z,98536.00
2018-06-17T05:17:35.880Z,98531.00
2018-06-17T05:20:06.120Z,98530.00
2018-06-17T05:22:36.040Z,98528.00
2018-06-17T05:25:06.371Z,98534.00
2018-06-17T05:27:36.491Z,98537.00
2018-06-17T05:30:07.272Z,98541.00
2018-06-17T05:32:37.580Z,98540.00
2018-06-17T05:35:07.571Z,98544.00
2018-06-17T05:37:37.481Z,98548.00
2018-06-17T05:40:07.931Z,98557.00
2018-06-17T05:42:38.841Z,98552.00
2018-06-17T05:45:09.032Z,98558.00
2018-06-17T05:47:39.433Z,98554.00
2018-06-17T05:50:09.581Z,98558.00
2018-06-17T05:52:39.801Z,98554.00
2018-06-17T05:55:09.931Z,98565.00
2018-06-17T05:57:40.381Z,98561.00
2018-06-17T06:00:10.551Z,98559.00
2018-06-17T06:02:40.921Z,98568.00
2018-06-17T06:05:11.544Z,98567.00
2018-06-17T06:07:41.871Z,98565.00
2018-06-17T06:10:12.201Z,98572.00
2018-06-17T06:12:42.850Z,98582.00
2018-06-17T06:15:12.950Z,98575.00
2018-06-17T06:17:43.171Z,98581.00
2018-06-17T06:20:13.460Z,98587.00
2018-06-17T06:22:43.923Z,98582.00
2018-06-17T06:25:14.451Z,98590.00
2018-06-17T06:27:44.403Z,98592.00
2018-06-17T06:30:15.194Z,98595.00
2018-06-17T06:32:45.561Z,98600.00
2018-06-17T06:35:15.940Z,98603.00
2018-06-17T06:37:46.571Z,98599.00
2018-06-17T06:40:17.001Z,98593.00
2018-06-17T06:42:47.400Z,98595.00
2018-06-17T06:45:17.400Z,98600.00
2018-06-17T06:47:47.641Z,98593.00
2018-06-17T06:50:18.012Z,98602.00
2018-06-17T06:52:48.645Z,98595.00
2018-06-17T06:55:19.200Z,98594.00
2018-06-17T06:57:50.310Z,98593.00
2018-06-17T07:00:20.850Z,98595.00
2018-06-17T07:03:07.450Z,98595.00
2018-06-17T07:05:53.851Z,98598.00
2018-06-17T07:10:32.603Z,98598.00
2018-06-17T07:13:03.463Z,98602.00
2018-06-17T07:15:49.621Z,98594.00
2018-06-17T07:18:41.052Z,98592.00
2018-06-17T07:21:12.608Z,98598.00
2018-06-17T07:23:44.191Z,98600.00
2018-06-17T07:26:37.461Z,98596.00
2018-06-17T07:29:25.739Z,98600.00
2018-06-17T07:31:56.081Z,98590.00
2018-06-17T07:34:26.472Z,98593.00
2018-06-17T07:36:57.011Z,98594.00
2018-06-17T07:41:45.291Z,98593.00
2018-06-17T07:44:17.320Z,98607.00
2018-06-17T07:46:47.222Z,98598.00
2018-06-17T07:49:41.971Z,98608.00
2018-06-17T07:52:29.304Z,98612.00
2018-06-17T07:54:59.631Z,98615.00
2018-06-17T07:57:30.931Z,98607.00
2018-06-17T08:00:01.382Z,98610.00
2018-06-17T08:02:31.761Z,98608.00
2018-06-17T08:05:02.040Z,98607.00
2018-06-17T08:07:32.241Z,98610.00
2018-06-17T08:10:02.712Z,98605.00
2018-06-17T08:12:33.313Z,98605.00
2018-06-17T08:15:04.031Z,98599.00
2018-06-17T08:17:34.150Z,98602.00
2018-06-17T08:20:04.754Z,98591.00
2018-06-17T08:22:34.832Z,98594.00
2018-06-17T08:25:05.160Z,98593.00
2018-06-17T08:27:35.384Z,98591.00
2018-06-17T08:30:05.510Z,98590.00
2018-06-17T08:32:36.362Z,98586.00
2018-06-17T08:35:06.710Z,98585.00
2018-06-17T08:37:37.060Z,98580.00
2018-06-17T08:40:07.410Z,98576.00
2018-06-17T08:42:38.336Z,98581.00
2018-06-17T08:45:09.541Z,98580.00
2018-06-17T08:47:39.211Z,98571.00
2018-06-17T08:50:09.092Z,98567.00
2018-06-17T08:52:39.930Z,98567.00
2018-06-17T08:55:12.547Z,98566.00
2018-06-17T08:57:43.231Z,98567.00
2018-06-17T09:00:14.527Z,98570.00
2018-06-17T09:02:46.101Z,98575.00
2018-06-17T09:05:16.161Z,98575.00
2018-06-17T09:07:47.111Z,98569.00
2018-06-17T09:10:17.579Z,98562.00
2018-06-17T09:12:48.277Z,98563.00
2018-06-17T09:15:18.181Z,98570.00
2018-06-17T09:17:48.326Z,98575.00
2018-06-17T09:20:19.703Z,98562.00
2018-06-17T09:22:50.341Z,98560.00
2018-06-17T09:25:21.152Z,98556.00
2018-06-17T09:27:51.501Z,98550.00
2018-06-17T09:30:21.621Z,98550.00
2018-06-17T09:32:52.451Z,98559.00
2018-06-17T09:35:23.354Z,98552.00
2018-06-17T09:37:55.543Z,98551.00
2018-06-17T09:40:26.822Z,98555.00
2018-06-17T09:42:57.581Z,98552.00
2018-06-17T09:45:27.930Z,98546.00
2018-06-17T09:47:58.330Z,98550.00
2018-06-17T09:50:28.801Z,98549.00
2018-06-17T09:52:59.621Z,98542.00
2018-06-17T09:55:30.431Z,98546.00
2018-06-17T09:57:59.992Z,98531.00
2018-06-17T10:00:32.521Z,98538.00
2018-06-17T10:03:02.580Z,98536.00
2018-06-17T10:05:32.840Z,98541.00
2018-06-17T10:08:04.151Z,98537.00
2018-06-17T10:11:08.265Z,98535.00
2018-06-17T10:13:44.351Z,98531.00
2018-06-17T10:16:16.585Z,98539.00
2018-06-17T10:18:46.902Z,98531.00
2018-06-17T10:21:18.580Z,98537.00
2018-06-17T10:23:49.044Z,98528.00
2018-06-17T10:26:19.061Z,98526.00
2018-06-17T10:28:49.431Z,98527.00
2018-06-17T10:31:20.130Z,98525.00
2018-06-17T10:33:50.610Z,98529.00
2018-06-17T10:36:20.831Z,98525.00
2018-06-17T10:38:51.151Z,98517.00
2018-06-17T10:41:21.141Z,98514.00
2018-06-17T10:43:51.480Z,98517.00
2018-06-17T10:46:22.241Z,98506.00
2018-06-17T10:48:52.549Z,98504.00
2018-06-17T10:51:23.334Z,98507.00
2018-06-17T10:53:54.351Z,98512.00
2018-06-17T10:56:24.602Z,98515.00
2018-06-17T10:58:54.482Z,98516.00
2018-06-17T11:01:24.601Z,98511.00
2018-06-17T11:03:54.752Z,98517.00
2018-06-17T11:06:25.292Z,98511.00
2018-06-17T11:08:55.451Z,98514.00
2018-06-17T11:11:26.581Z,98519.00
2018-06-17T11:13:56.680Z,98510.00
2018-06-17T11:16:26.841Z,98515.00
2018-06-17T11:18:57.533Z,98514.00
2018-06-17T11:21:28.591Z,98508.00
2018-06-17T11:23:59.131Z,98512.00
2018-06-17T11:26:29.492Z,98514.00
2018-06-17T11:28:59.481Z,98511.00
2018-06-17T11:31:29.722Z,98510.00
2018-06-17T11:33:59.700Z,98510.00
2018-06-17T11:36:29.962Z,98507.00
2018-06-17T11:39:00.102Z,98508.00
2018-06-17T11:41:30.342Z,98512.00
2018-06-17T11:44:00.542Z,98513.00
2018-06-17T11:46:31.063Z,98515.00
2018-06-17T11:49:01.351Z,98517.00
2018-06-17T11:51:31.791Z,98507.00
2018-06-17T11:54:02.165Z,98506.00
2018-06-17T11:56:32.011Z,98498.00
2018-06-17T11:59:03.010Z,98486.00
2018-06-17T12:01:33.729Z,98487.00
2018-06-17T12:04:03.594Z,98498.00
2018-06-17T12:06:33.861Z,98485.00
2018-06-17T12:09:06.594Z,98480.00
2018-06-17T12:11:37.181Z,98477.00
2018-06-17T12:14:07.801Z,98480.00
2018-06-17T12:16:39.095Z,98473.00
2018-06-17T12:19:10.071Z,98466.00
2018-06-17T12:21:40.514Z,98468.00
2018-06-17T12:24:10.721Z,98465.00
2018-06-17T12:26:40.320Z,98471.00
2018-06-17T12:29:11.399Z,98472.00
2018-06-17T12:31:42.000Z,98465.00
2018-06-17T12:34:12.811Z,98474.00
2018-06-17T12:36:42.619Z,98474.00
2018-06-17T12:39:14.470Z,98476.00
2018-06-17T12:41:45.271Z,98474.00
2018-06-17T12:44:16.481Z,98484.00
2018-06-17T12:46:47.493Z,98471.00
2018-06-17T12:49:17.814Z,98474.00
2018-06-17T12:51:48.442Z,98469.00
2018-06-17T12:54:19.641Z,98461.00
2018-06-17T12:56:50.594Z,98457.00
2018-06-17T12:59:22.154Z,98462.00
2018-06-17T13:01:52.721Z,98453.00
2018-06-17T13:04:22.941Z,98457.00
2018-06-17T13:06:53.281Z,98455.00
2018-06-17T13:09:23.650Z,98456.00
2018-06-17T13:11:55.631Z,98456.00
2018-06-17T13:14:26.409Z,98450.00
2018-06-17T13:16:58.131Z,98453.00
2018-06-17T13:19:29.411Z,98454.00
2018-06-17T13:21:59.800Z,98449.00
2018-06-17T13:24:29.780Z,98450.00
2018-06-17T13:27:00.411Z,98448.00
2018-06-17T13:29:31.250Z,98449.00
2018-06-17T13:32:02.171Z,98437.00
2018-06-17T13:34:32.633Z,98438.00
2018-06-17T13:37:02.771Z,98440.00
2018-06-17T13:39:33.981Z,98437.00
2018-06-17T13:42:04.091Z,98434.00
2018-06-17T13:44:34.391Z,98442.00
2018-06-17T13:47:05.120Z,98435.00
2018-06-17T13:49:35.611Z,98441.00
2018-06-17T13:52:06.090Z,98435.00
2018-06-17T13:54:36.491Z,98434.00
2018-06-17T13:57:06.771Z,98433.00
2018-06-17T13:59:37.011Z,98432.00
2018-06-17T14:02:07.760Z,98422.00
2018-06-17T14:04:38.311Z,98435.00
2018-06-17T14:07:08.701Z,98422.00
2018-06-17T14:09:38.575Z,98432.00
2018-06-17T14:12:08.980Z,98429.00
2018-06-17T14:14:39.875Z,98424.00
2018-06-17T14:17:10.142Z,98417.00
2018-06-17T14:19:40.082Z,98418.00
2018-06-17T14:22:11.031Z,98416.00
2018-06-17T14:24:41.680Z,98412.00
2018-06-17T14:27:11.474Z,98416.00
2018-06-17T14:29:41.462Z,98409.00
2018-06-17T14:32:12.212Z,98417.00
2018-06-17T14:34:43.470Z,98410.00
2018-06-17T14:37:14.041Z,98412.00
2018-06-17T14:39:45.013Z,98403.00
2018-06-17T14:44:24.933Z,98404.00
2018-06-17T14:47:00.161Z,98400.00
2018-06-17T14:49:35.690Z,98398.00
2018-06-17T14:52:10.802Z,98403.00
2018-06-17T14:54:41.000Z,98389.00
2018-06-17T14:57:10.985Z,98397.00
2018-06-17T14:59:41.207Z,98394.00
2018-06-17T15:02:11.551Z,98389.00
2018-06-17T15:04:42.770Z,98392.00
2018-06-17T15:07:13.019Z,98382.00
2018-06-17T15:09:43.364Z,98381.00
2018-06-17T15:12:13.723Z,98383.00
2018-06-17T15:14:44.579Z,98380.00
2018-06-17T15:17:15.004Z,98382.00
2018-06-17T15:19:45.351Z,98382.00
2018-06-17T15:22:15.721Z,98382.00
2018-06-17T15:24:45.630Z,98386.00
2018-06-17T15:27:16.011Z,98381.00
2018-06-17T15:29:47.370Z,98380.00
2018-06-17T15:32:24.311Z,98374.00
2018-06-17T15:34:59.933Z,98372.00
2018-06-17T15:37:35.283Z,98374.00
2018-06-17T15:40:06.031Z,98378.00
2018-06-17T15:42:36.841Z,98378.00
2018-06-17T15:45:07.571Z,98376.00
2018-06-17T15:47:37.891Z,98380.00
2018-06-17T15:50:08.980Z,98370.00
2018-06-17T15:52:39.741Z,98373.00
2018-06-17T15:55:10.228Z,98370.00
2018-06-17T15:57:40.720Z,98366.00
2018-06-17T16:00:11.231Z,98368.00
2018-06-17T16:02:41.732Z,98371.00
2018-06-17T16:05:12.290Z,98369.00
2018-06-17T16:07:42.801Z,98370.00
2018-06-17T16:10:13.132Z,98365.00
2018-06-17T16:12:48.684Z,98362.00
2018-06-17T16:15:24.734Z,98362.00
2018-06-17T16:18:00.200Z,98367.00
2018-06-17T16:20:35.452Z,98374.00
2018-06-17T16:23:05.932Z,98372.00
2018-06-17T16:25:36.722Z,98374.00
2018-06-17T16:28:07.286Z,98381.00
2018-06-17T16:30:37.705Z,98368.00
2018-06-17T16:33:08.401Z,98378.00
2018-06-17T16:35:37.937Z,98380.00
2018-06-17T16:38:08.561Z,98377.00
2018-06-17T16:40:38.751Z,98372.00
2018-06-17T16:43:09.261Z,98384.00
2018-06-17T16:45:39.530Z,98378.00
2018-06-17T16:48:09.801Z,98378.00
2018-06-17T16:50:40.401Z,98382.00
2018-06-17T16:53:15.964Z,98379.00
2018-06-17T16:55:52.620Z,98379.00
2018-06-17T16:58:28.072Z,98381.00
2018-06-17T17:00:58.421Z,98379.00
2018-06-17T17:03:28.894Z,98386.00
2018-06-17T17:05:59.291Z,98388.00
2018-06-17T17:08:29.531Z,98381.00
2018-06-17T17:10:59.761Z,98387.00
2018-06-17T17:13:30.841Z,98391.00
2018-06-17T17:16:01.482Z,98393.00
2018-06-17T17:18:31.890Z,98396.00
2018-06-17T17:21:02.291Z,98398.00
2018-06-17T17:23:32.573Z,98405.00
2018-06-17T17:26:02.620Z,98401.00
2018-06-17T17:28:34.011Z,98413.00
2018-06-17T17:31:04.051Z,98411.00
2018-06-17T17:33:39.532Z,98416.00
2018-06-17T17:36:14.911Z,98421.00
2018-06-17T17:38:50.409Z,98422.00
2018-06-17T17:41:20.890Z,98427.00
2018-06-17T17:43:52.112Z,98427.00
2018-06-17T17:46:28.041Z,98435.00
2018-06-17T17:48:58.481Z,98436.00
2018-06-17T17:51:28.713Z,98438.00
2018-06-17T17:53:59.225Z,98442.00
2018-06-17T17:56:29.601Z,98458.00
2018-06-17T17:58:59.850Z,98459.00
2018-06-17T18:01:30.500Z,98457.00
2018-06-17T18:04:11.362Z,98462.00
2018-06-17T18:06:41.612Z,98463.00
2018-06-17T18:09:12.030Z,98477.00
2018-06-17T18:11:42.301Z,98495.00
2018-06-17T18:14:12.821Z,98488.00
2018-06-17T18:16:43.620Z,98501.00
2018-06-17T18:19:15.591Z,98485.00
2018-06-17T18:21:45.501Z,98488.00
2018-06-17T18:24:15.630Z,98494.00
2018-06-17T18:26:51.631Z,98483.00
2018-06-17T18:29:26.730Z,98485.00
2018-06-17T18:32:02.090Z,98480.00
2018-06-17T18:34:37.413Z,98489.00
2018-06-17T18:37:07.941Z,98487.00
2018-06-17T18:39:39.200Z,98488.00
2018-06-17T18:42:10.113Z,98489.00
2018-06-17T18:44:40.350Z,98491.00
2018-06-17T18:47:10.329Z,98492.00
2018-06-17T18:49:40.903Z,98494.00
2018-06-17T18:52:11.591Z,98503.00
2018-06-17T18:54:42.491Z,98498.00
2018-06-17T18:57:12.841Z,98497.00
2018-06-17T18:59:43.271Z,98506.00
2018-06-17T19:02:13.721Z,98515.00
2018-06-17T19:04:45.061Z,98523.00
2018-06-17T19:07:15.452Z,98526.00
2018-06-17T19:09:50.528Z,98521.00
2018-06-17T19:12:26.050Z,98526.00
2018-06-17T19:17:04.801Z,98540.00
2018-06-17T19:19:35.084Z,98543.00
2018-06-17T19:22:05.510Z,98543.00
2018-06-17T19:24:36.111Z,98551.00
2018-06-17T19:27:06.912Z,98560.00
2018-06-17T19:29:37.433Z,98553.00
2018-06-17T19:32:07.792Z,98565.00
2018-06-17T19:34:38.654Z,98571.00
2018-06-17T19:37:08.801Z,98580.00
2018-06-17T19:39:39.141Z,98583.00
2018-06-17T19:42:09.641Z,98595.00
2018-06-17T19:44:39.821Z,98593.00
2018-06-17T19:47:10.083Z,98599.00
2018-06-17T19:49:46.810Z,98598.00
2018-06-17T19:52:23.241Z,98609.00
2018-06-17T19:54:58.714Z,98608.00
2018-06-17T19:57:34.333Z,98603.00
2018-06-17T20:00:10.381Z,98605.00
2018-06-17T20:02:40.310Z,98616.00
2018-06-17T20:05:10.480Z,98611.00
2018-06-17T20:07:40.841Z,98617.00
2018-06-17T20:10:11.830Z,98622.00
2018-06-17T20:12:42.351Z,98629.00
2018-06-17T20:15:12.328Z,98627.00
2018-06-17T20:17:42.851Z,98632.00
2018-06-17T20:20:13.751Z,98639.00
2018-06-17T20:22:43.991Z,98642.00
2018-06-17T20:25:14.404Z,98652.00
2018-06-17T20:27:44.501Z,98646.00
2018-06-17T20:30:15.841Z,98650.00
2018-06-17T20:32:51.642Z,98653.00
2018-06-17T20:35:27.651Z,98655.00
2018-06-17T20:38:03.390Z,98656.00
2018-06-17T20:40:40.031Z,98658.00
2018-06-17T20:43:15.601Z,98663.00
2018-06-17T20:45:45.949Z,98664.00
2018-06-17T20:48:16.997Z,98671.00
2018-06-17T20:50:47.030Z,98677.00
2018-06-17T20:53:17.370Z,98675.00
2018-06-17T20:55:47.335Z,98681.00
2018-06-17T20:58:17.305Z,98672.00
2018-06-17T21:00:47.181Z,98679.00
2018-06-17T21:03:18.549Z,98681.00
2018-06-17T21:05:48.846Z,98686.00
2018-06-17T21:08:18.350Z,98684.00
2018-06-17T21:10:49.300Z,98680.00
2018-06-17T21:13:19.480Z,98683.00
2018-06-17T21:15:49.871Z,98692.00
2018-06-17T21:18:25.400Z,98689.00
2018-06-17T21:21:01.991Z,98703.00
2018-06-17T21:23:37.241Z,98700.00
2018-06-17T21:26:12.770Z,98708.00
2018-06-17T21:28:43.181Z,98709.00
2018-06-17T21:31:13.701Z,98715.00
2018-06-17T21:33:44.550Z,98718.00
2018-06-17T21:36:14.960Z,98721.00
2018-06-17T21:38:45.301Z,98722.00
2018-06-17T21:41:16.449Z,98720.00
2018-06-17T21:43:47.220Z,98714.00
2018-06-17T21:46:17.441Z,98721.00
2018-06-17T21:48:47.671Z,98728.00
2018-06-17T21:51:18.041Z,98729.00
2018-06-17T21:53:48.311Z,98731.00
2018-06-17T21:56:19.351Z,98725.00
2018-06-17T21:58:49.620Z,98733.00
2018-06-17T22:01:20.100Z,98737.00
2018-06-17T22:03:50.520Z,98738.00
2018-06-17T22:06:21.260Z,98734.00
2018-06-17T22:08:56.770Z,98735.00
2018-06-17T22:11:33.220Z,98741.00
2018-06-17T22:14:08.523Z,98741.00
2018-06-17T22:16:45.180Z,98735.00
2018-06-17T22:19:15.520Z,98736.00
2018-06-17T22:21:46.080Z,98735.00
2018-06-17T22:24:17.050Z,98730.00
2018-06-17T22:26:48.031Z,98743.00
2018-06-17T22:29:18.152Z,98749.00
2018-06-17T22:31:49.054Z,98742.00
2018-06-17T22:34:20.600Z,98741.00
2018-06-17T22:36:50.790Z,98742.00
2018-06-17T22:39:21.061Z,98735.00
2018-06-17T22:41:52.640Z,98730.00
2018-06-17T22:44:23.372Z,98728.00
2018-06-17T22:46:55.294Z,98736.00
2018-06-17T22:49:25.470Z,98740.00
2018-06-17T22:51:56.350Z,98744.00
2018-06-17T22:54:42.190Z,98750.00
2018-06-17T22:57:17.650Z,98752.00
2018-06-17T22:59:53.440Z,98749.00
2018-06-17T23:02:29.450Z,98766.00
2018-06-17T23:05:04.711Z,98759.00
2018-06-17T23:07:40.051Z,98768.00
2018-06-17T23:10:12.544Z,98767.00
2018-06-17T23:12:42.970Z,98762.00
2018-06-17T23:15:13.221Z,98777.00
2018-06-17T23:17:43.431Z,98779.00
2018-06-17T23:20:13.531Z,98778.00
2018-06-17T23:22:43.780Z,98778.00
2018-06-17T23:25:15.060Z,98777.00
2018-06-17T23:27:46.130Z,98780.00
2018-06-17T23:30:16.440Z,98777.00
2018-06-17T23:32:47.399Z,98785.00
2018-06-17T23:35:17.740Z,98787.00
2018-06-17T23:37:48.011Z,98793.00
2018-06-17T23:40:18.500Z,98788.00
2018-06-17T23:42:48.660Z,98787.00
2018-06-17T23:45:18.716Z,98786.00
2018-06-17T23:47:55.151Z,98780.00
2018-06-17T23:50:30.429Z,98785.00
2018-06-17T23:53:06.981Z,98788.00
2018-06-17T23:55:42.441Z,98792.00
2018-06-17T23:58:13.781Z,98784.00
